createdAt,value
2018-09-20T00:00:54.382Z,20.27
2018-09-20T00:01:56.479Z,13.18
2018-09-20T00:02:58.610Z,15.50
2018-09-20T00:04:00.740Z,13.30
2018-09-20T00:05:02.874Z,16.87
2018-09-20T00:06:05.245Z,14.83
2018-09-20T00:07:07.452Z,13.35
2018-09-20T00:08:09.578Z,14.68
2018-09-20T00:09:11.744Z,14.20
2018-09-20T00:10:13.889Z,15.08
2018-09-20T00:11:16.031Z,16.00
2018-09-20T00:12:18.186Z,15.53
2018-09-20T00:13:20.345Z,15.72
2018-09-20T00:14:22.525Z,16.32
2018-09-20T00:15:24.685Z,14.85
2018-09-20T00:16:26.805Z,14.78
2018-09-20T00:17:28.941Z,14.25
2018-09-20T00:18:31.050Z,14.87
2018-09-20T00:19:33.431Z,14.00
2018-09-20T00:20:35.570Z,17.23
2018-09-20T00:21:37.989Z,13.40
2018-09-20T00:22:40.115Z,16.57
2018-09-20T00:23:42.601Z,14.95
2018-09-20T00:24:44.759Z,19.70
2018-09-20T00:25:46.895Z,17.57
2018-09-20T00:26:49.010Z,15.45
2018-09-20T00:27:51.162Z,15.90
2018-09-20T00:28:53.286Z,17.77
2018-09-20T00:29:55.417Z,15.75
2018-09-20T00:30:57.649Z,13.78
2018-09-20T00:31:59.781Z,16.12
2018-09-20T00:33:01.896Z,15.00
2018-09-20T00:34:04.034Z,15.65
2018-09-20T00:35:06.222Z,17.32
2018-09-20T00:36:08.357Z,19.55
2018-09-20T00:37:11.216Z,15.78
2018-09-20T00:38:13.390Z,16.25
2018-09-20T00:39:15.517Z,18.60
2018-09-20T00:40:17.682Z,16.60
2018-09-20T00:41:20.349Z,17.05
2018-09-20T00:42:22.508Z,17.23
2018-09-20T00:43:24.665Z,17.92
2018-09-20T00:44:27.307Z,16.52
2018-09-20T00:45:29.460Z,14.45
2018-09-20T00:46:31.597Z,14.98
2018-09-20T00:47:33.717Z,15.75
2018-09-20T00:48:35.861Z,16.62
2018-09-20T00:49:37.969Z,16.17
2018-09-20T00:50:40.122Z,17.50
2018-09-20T00:51:42.265Z,16.87
2018-09-20T00:52:44.396Z,14.95
2018-09-20T00:53:46.767Z,15.13
2018-09-20T00:54:48.914Z,13.22
2018-09-20T00:55:51.036Z,14.65
2018-09-20T00:56:53.161Z,19.00
2018-09-20T00:57:55.290Z,17.30
2018-09-20T00:58:57.426Z,16.00
2018-09-20T00:59:59.565Z,17.17
2018-09-20T01:01:01.746Z,15.35
2018-09-20T01:02:04.170Z,14.30
2018-09-20T01:03:06.329Z,17.23
2018-09-20T01:04:08.490Z,11.65
2018-09-20T01:05:10.647Z,14.05
2018-09-20T01:06:12.776Z,15.08
2018-09-20T01:07:15.198Z,15.63
2018-09-20T01:08:17.437Z,15.20
2018-09-20T01:09:19.554Z,15.15
2018-09-20T01:10:21.716Z,15.20
2018-09-20T01:11:23.918Z,17.05
2018-09-20T01:12:26.387Z,17.90
2018-09-20T01:13:28.547Z,17.10
2018-09-20T01:14:30.705Z,13.93
2018-09-20T01:15:32.869Z,12.03
2018-09-20T01:16:35.299Z,16.65
2018-09-20T01:17:37.438Z,15.15
2018-09-20T01:18:39.593Z,15.63
2018-09-20T01:19:41.761Z,15.38
2018-09-20T01:20:44.212Z,17.50
2018-09-20T01:21:46.390Z,16.93
2018-09-20T01:22:48.537Z,17.98
2018-09-20T01:23:50.935Z,15.40
2018-09-20T01:24:53.065Z,15.43
2018-09-20T01:25:55.224Z,16.17
2018-09-20T01:26:57.365Z,14.47
2018-09-20T01:27:59.488Z,15.85
2018-09-20T01:29:01.670Z,13.65
2018-09-20T01:30:04.290Z,15.55
2018-09-20T01:31:06.449Z,16.30
2018-09-20T01:32:08.600Z,14.15
2018-09-20T01:33:10.741Z,17.05
2018-09-20T01:34:12.862Z,15.08
2018-09-20T01:35:15.037Z,14.80
2018-09-20T01:36:17.146Z,15.08
2018-09-20T01:37:19.604Z,14.50
2018-09-20T01:38:21.735Z,17.52
2018-09-20T01:39:23.849Z,16.25
2018-09-20T01:40:26.073Z,16.30
2018-09-20T01:41:29.383Z,13.13
2018-09-20T01:42:31.522Z,17.50
2018-09-20T01:43:33.659Z,12.85
2018-09-20T01:44:35.807Z,15.15
2018-09-20T01:45:39.103Z,13.88
2018-09-20T01:46:41.409Z,16.73
2018-09-20T01:47:43.543Z,14.98
2018-09-20T01:48:45.682Z,16.10
2018-09-20T01:49:47.830Z,14.90
2018-09-20T01:50:49.972Z,15.60
2018-09-20T01:51:52.111Z,17.40
2018-09-20T01:52:54.252Z,16.73
2018-09-20T01:53:56.421Z,18.20
2018-09-20T01:54:58.573Z,16.07
2018-09-20T01:56:00.730Z,17.50
2018-09-20T01:57:03.104Z,15.43
2018-09-20T01:58:05.268Z,16.77
2018-09-20T01:59:07.405Z,17.57
2018-09-20T02:00:09.604Z,18.52
2018-09-20T02:01:12.005Z,20.92
2018-09-20T02:02:14.134Z,15.95
2018-09-20T02:03:16.269Z,16.07
2018-09-20T02:04:18.402Z,16.55
2018-09-20T02:05:20.586Z,15.85
2018-09-20T02:06:22.717Z,18.35
2018-09-20T02:07:25.293Z,16.52
2018-09-20T02:08:27.440Z,15.78
2018-09-20T02:09:29.638Z,14.85
2018-09-20T02:10:31.793Z,17.95
2018-09-20T02:11:33.913Z,19.10
2018-09-20T02:12:36.051Z,18.20
2018-09-20T02:13:38.195Z,16.50
2018-09-20T02:14:40.366Z,15.40
2018-09-20T02:15:42.749Z,15.35
2018-09-20T02:16:44.862Z,17.00
2018-09-20T02:17:46.999Z,15.23
2018-09-20T02:18:49.140Z,16.30
2018-09-20T02:19:51.262Z,15.13
2018-09-20T02:20:53.485Z,17.17
2018-09-20T02:21:55.666Z,15.90
2018-09-20T02:22:57.846Z,15.80
2018-09-20T02:23:59.995Z,15.80
2018-09-20T02:25:02.123Z,13.45
2018-09-20T02:26:04.309Z,18.32
2018-09-20T02:27:06.465Z,14.10
2018-09-20T02:28:08.686Z,16.00
2018-09-20T02:29:10.800Z,18.30
2018-09-20T02:30:12.948Z,17.10
2018-09-20T02:31:15.093Z,16.80
2018-09-20T02:32:17.236Z,16.73
2018-09-20T02:33:19.365Z,15.65
2018-09-20T02:34:21.783Z,16.25
2018-09-20T02:35:23.910Z,11.65
2018-09-20T02:36:26.105Z,17.30
2018-09-20T02:37:28.266Z,15.18
2018-09-20T02:38:30.442Z,15.55
2018-09-20T02:39:32.578Z,17.10
2018-09-20T02:40:34.768Z,15.23
2018-09-20T02:41:37.290Z,12.58
2018-09-20T02:42:39.438Z,13.40
2018-09-20T02:43:41.576Z,16.67
2018-09-20T02:44:43.702Z,17.98
2018-09-20T02:45:45.810Z,14.35
2018-09-20T02:46:47.957Z,14.47
2018-09-20T02:47:50.134Z,14.98
2018-09-20T02:48:52.329Z,15.75
2018-09-20T02:49:54.461Z,16.35
2018-09-20T02:50:56.622Z,13.93
2018-09-20T02:51:59.274Z,18.17
2018-09-20T02:53:01.416Z,15.88
2018-09-20T02:54:03.534Z,14.33
2018-09-20T02:55:06.091Z,19.23
2018-09-20T02:56:08.238Z,15.78
2018-09-20T02:57:10.374Z,18.15
2018-09-20T02:58:12.490Z,17.20
2018-09-20T02:59:14.619Z,16.35
2018-09-20T03:00:16.821Z,16.02
2018-09-20T03:01:18.998Z,17.82
2018-09-20T03:02:21.123Z,16.85
2018-09-20T03:03:23.525Z,16.17
2018-09-20T03:04:25.632Z,16.27
2018-09-20T03:05:27.767Z,17.10
2018-09-20T03:06:29.897Z,14.28
2018-09-20T03:07:32.075Z,17.75
2018-09-20T03:08:34.255Z,13.32
2018-09-20T03:09:36.395Z,15.30
2018-09-20T03:10:38.536Z,15.68
2018-09-20T03:11:41.005Z,18.75
2018-09-20T03:12:43.133Z,20.02
2018-09-20T03:13:45.258Z,16.55
2018-09-20T03:14:47.403Z,16.90
2018-09-20T03:15:49.547Z,16.07
2018-09-20T03:16:51.662Z,20.97
2018-09-20T03:17:53.793Z,14.95
2018-09-20T03:18:55.923Z,17.12
2018-09-20T03:19:58.058Z,18.30
2018-09-20T03:21:00.466Z,15.10
2018-09-20T03:22:02.650Z,17.70
2018-09-20T03:23:04.800Z,17.15
2018-09-20T03:24:07.000Z,16.00
2018-09-20T03:25:09.130Z,15.45
2018-09-20T03:26:11.285Z,17.85
2018-09-20T03:27:13.398Z,16.50
2018-09-20T03:28:15.529Z,16.67
2018-09-20T03:29:17.677Z,15.55
2018-09-20T03:30:19.899Z,18.07
2018-09-20T03:31:22.024Z,20.10
2018-09-20T03:32:24.180Z,15.48
2018-09-20T03:33:26.318Z,14.93
2018-09-20T03:34:28.467Z,14.28
2018-09-20T03:35:30.681Z,19.42
2018-09-20T03:36:32.796Z,14.78
2018-09-20T03:37:34.994Z,17.48
2018-09-20T03:38:37.286Z,16.12
2018-09-20T03:39:39.502Z,17.50
2018-09-20T03:40:41.650Z,19.65
2018-09-20T03:41:44.010Z,21.12
2018-09-20T03:42:46.177Z,20.37
2018-09-20T03:43:48.594Z,20.80
2018-09-20T03:44:50.774Z,20.70
2018-09-20T03:45:52.915Z,17.23
2018-09-20T03:46:55.338Z,18.35
2018-09-20T03:47:57.780Z,16.95
2018-09-20T03:49:00.184Z,17.67
2018-09-20T03:50:02.350Z,17.02
2018-09-20T03:51:04.788Z,19.90
2018-09-20T03:52:06.938Z,18.27
2018-09-20T03:53:09.217Z,17.48
2018-09-20T03:54:11.387Z,19.10
2018-09-20T03:55:13.546Z,15.88
2018-09-20T03:56:15.689Z,15.38
2018-09-20T03:57:17.835Z,15.80
2018-09-20T03:58:19.975Z,18.23
2018-09-20T03:59:22.129Z,16.10
2018-09-20T04:00:24.296Z,17.50
2018-09-20T04:01:26.493Z,19.02
2018-09-20T04:02:28.629Z,15.43
2018-09-20T04:03:30.794Z,15.00
2018-09-20T04:04:32.955Z,17.87
2018-09-20T04:05:35.121Z,18.82
2018-09-20T04:06:37.526Z,17.32
2018-09-20T04:07:39.708Z,18.05
2018-09-20T04:08:41.866Z,17.60
2018-09-20T04:09:44.090Z,15.18
2018-09-20T04:10:46.187Z,17.82
2018-09-20T04:11:48.610Z,14.98
2018-09-20T04:12:51.058Z,15.68
2018-09-20T04:13:53.230Z,17.52
2018-09-20T04:14:55.774Z,18.48
2018-09-20T04:15:57.954Z,17.42
2018-09-20T04:17:00.119Z,18.10
2018-09-20T04:18:02.285Z,17.70
2018-09-20T04:19:04.643Z,14.58
2018-09-20T04:20:07.433Z,16.15
2018-09-20T04:21:09.832Z,16.67
2018-09-20T04:22:11.996Z,15.88
2018-09-20T04:23:14.190Z,17.70
2018-09-20T04:24:16.623Z,16.80
2018-09-20T04:25:18.790Z,18.62
2018-09-20T04:26:20.933Z,16.27
2018-09-20T04:27:23.070Z,15.15
2018-09-20T04:28:25.228Z,15.72
2018-09-20T04:29:27.375Z,18.07
2018-09-20T04:30:29.645Z,15.43
2018-09-20T04:31:31.877Z,16.77
2018-09-20T04:32:33.987Z,16.50
2018-09-20T04:33:36.121Z,17.32
2018-09-20T04:34:38.263Z,17.30
2018-09-20T04:35:40.774Z,17.60
2018-09-20T04:36:42.946Z,16.60
2018-09-20T04:37:45.082Z,17.20
2018-09-20T04:38:47.240Z,15.98
2018-09-20T04:39:49.584Z,17.55
2018-09-20T04:40:51.718Z,18.15
2018-09-20T04:41:53.858Z,17.00
2018-09-20T04:42:55.998Z,17.35
2018-09-20T04:43:58.151Z,17.50
2018-09-20T04:45:00.302Z,15.65
2018-09-20T04:46:02.459Z,14.05
2018-09-20T04:47:04.907Z,15.83
2018-09-20T04:48:07.088Z,16.40
2018-09-20T04:49:09.303Z,18.30
2018-09-20T04:50:11.461Z,16.17
2018-09-20T04:51:13.594Z,17.62
2018-09-20T04:52:15.731Z,17.73
2018-09-20T04:53:17.973Z,17.23
2018-09-20T04:54:20.103Z,16.97
2018-09-20T04:55:22.275Z,18.10
2018-09-20T04:56:25.099Z,18.55
2018-09-20T04:57:27.254Z,15.63
2018-09-20T04:58:29.393Z,17.17
2018-09-20T04:59:31.605Z,17.92
2018-09-20T05:00:33.787Z,17.23
2018-09-20T05:01:35.912Z,16.90
2018-09-20T05:02:38.075Z,15.70
2018-09-20T05:03:40.209Z,19.48
2018-09-20T05:04:42.356Z,18.90
2018-09-20T05:05:44.638Z,18.25
2018-09-20T05:06:46.764Z,16.02
2018-09-20T05:07:48.905Z,19.52
2018-09-20T05:08:51.297Z,16.45
2018-09-20T05:09:53.799Z,16.35
2018-09-20T05:10:55.990Z,17.15
2018-09-20T05:11:58.421Z,17.12
2018-09-20T05:13:00.543Z,19.35
2018-09-20T05:14:02.733Z,19.92
2018-09-20T05:15:04.928Z,16.60
2018-09-20T05:16:07.076Z,20.40
2018-09-20T05:17:09.222Z,16.15
2018-09-20T05:18:11.581Z,18.10
2018-09-20T05:19:13.699Z,19.73
2018-09-20T05:20:15.952Z,17.25
2018-09-20T05:21:18.042Z,19.75
2018-09-20T05:22:20.202Z,13.88
2018-09-20T05:23:22.377Z,16.77
2018-09-20T05:24:24.490Z,17.00
2018-09-20T05:25:26.627Z,19.05
2018-09-20T05:26:29.034Z,18.50
2018-09-20T05:27:31.179Z,17.48
2018-09-20T05:28:33.330Z,19.80
2018-09-20T05:29:35.478Z,17.62
2018-09-20T05:30:37.634Z,14.75
2018-09-20T05:31:39.798Z,19.50
2018-09-20T05:32:41.965Z,19.98
2018-09-20T05:33:44.122Z,15.32
2018-09-20T05:34:46.326Z,16.82
2018-09-20T05:35:48.741Z,19.05
2018-09-20T05:36:50.917Z,18.85
2018-09-20T05:37:53.054Z,19.60
2018-09-20T05:38:55.211Z,16.82
2018-09-20T05:39:57.394Z,19.10
2018-09-20T05:40:59.534Z,20.60
2018-09-20T05:42:01.679Z,19.50
2018-09-20T05:43:03.843Z,18.20
2018-09-20T05:44:06.278Z,17.30
2018-09-20T05:45:08.399Z,15.90
2018-09-20T05:46:10.581Z,14.95
2018-09-20T05:47:12.786Z,17.35
2018-09-20T05:48:14.947Z,19.23
2018-09-20T05:49:17.255Z,16.80
2018-09-20T05:50:19.392Z,20.62
2018-09-20T05:51:21.598Z,20.70
2018-09-20T05:52:23.715Z,19.73
2018-09-20T05:53:25.846Z,19.80
2018-09-20T05:54:27.965Z,19.07
2018-09-20T05:55:30.091Z,16.82
2018-09-20T05:56:32.566Z,15.90
2018-09-20T05:57:34.721Z,17.20
2018-09-20T05:58:36.996Z,19.52
2018-09-20T05:59:39.125Z,20.90
2018-09-20T06:00:41.389Z,18.87
2018-09-20T06:01:43.542Z,17.70
2018-09-20T06:02:45.710Z,19.60
2018-09-20T06:03:47.861Z,17.10
2018-09-20T06:04:50.245Z,17.82
2018-09-20T06:05:52.488Z,18.67
2018-09-20T06:06:54.582Z,19.20
2018-09-20T06:07:56.745Z,18.57
2018-09-20T06:08:58.877Z,19.05
2018-09-20T06:10:01.027Z,18.57
2018-09-20T06:11:03.230Z,18.75
2018-09-20T06:12:05.443Z,18.80
2018-09-20T06:13:07.608Z,16.80
2018-09-20T06:14:09.723Z,17.98
2018-09-20T06:15:11.966Z,17.60
2018-09-20T06:16:14.088Z,17.87
2018-09-20T06:17:16.200Z,19.60
2018-09-20T06:18:18.356Z,19.37
2018-09-20T06:19:20.530Z,16.48
2018-09-20T06:20:22.668Z,19.20
2018-09-20T06:21:24.835Z,23.40
2018-09-20T06:22:26.991Z,24.45
2018-09-20T06:23:29.127Z,17.12
2018-09-20T06:24:31.265Z,18.77
2018-09-20T06:25:33.402Z,18.67
2018-09-20T06:26:35.545Z,18.67
2018-09-20T06:27:37.719Z,22.05
2018-09-20T06:28:39.834Z,19.98
2018-09-20T06:29:42.006Z,18.75
2018-09-20T06:30:44.153Z,19.70
2018-09-20T06:31:46.328Z,17.02
2018-09-20T06:32:48.531Z,20.08
2018-09-20T06:33:50.721Z,18.25
2018-09-20T06:34:52.885Z,19.25
2018-09-20T06:35:55.060Z,19.65
2018-09-20T06:36:57.273Z,19.50
2018-09-20T06:37:59.666Z,16.02
2018-09-20T06:39:01.858Z,15.30
2018-09-20T06:40:04.249Z,18.92
2018-09-20T06:41:06.389Z,16.52
2018-09-20T06:42:08.558Z,15.30
2018-09-20T06:43:10.684Z,17.50
2018-09-20T06:44:12.875Z,17.57
2018-09-20T06:45:15.011Z,19.80
2018-09-20T06:46:17.192Z,19.90
2018-09-20T06:47:19.597Z,18.45
2018-09-20T06:48:21.733Z,17.62
2018-09-20T06:49:23.854Z,21.40
2018-09-20T06:50:26.052Z,16.95
2018-09-20T06:51:28.187Z,16.62
2018-09-20T06:52:30.346Z,17.35
2018-09-20T06:53:32.485Z,18.12
2018-09-20T06:54:34.599Z,15.38
2018-09-20T06:55:36.744Z,18.55
2018-09-20T06:56:38.922Z,21.10
2018-09-20T06:57:41.013Z,18.30
2018-09-20T06:58:43.398Z,20.52
2018-09-20T06:59:45.984Z,18.65
2018-09-20T07:00:48.207Z,18.50
2018-09-20T07:01:50.461Z,16.73
2018-09-20T07:02:52.656Z,18.32
2018-09-20T07:03:54.754Z,20.68
2018-09-20T07:04:56.861Z,18.85
2018-09-20T07:05:59.026Z,20.52
2018-09-20T07:07:01.170Z,19.67
2018-09-20T07:08:03.347Z,24.80
2018-09-20T07:09:08.338Z,19.70
2018-09-20T07:10:10.473Z,20.30
2018-09-20T07:11:12.679Z,18.82
2018-09-20T07:12:14.809Z,18.40
2018-09-20T07:13:16.937Z,20.27
2018-09-20T07:14:19.063Z,16.95
2018-09-20T07:15:21.236Z,17.82
2018-09-20T07:16:23.374Z,17.75
2018-09-20T07:17:25.550Z,23.10
2018-09-20T07:18:27.677Z,18.80
2018-09-20T07:19:30.173Z,16.10
2018-09-20T07:20:32.337Z,17.02
2018-09-20T07:21:34.539Z,19.50
2018-09-20T07:22:36.709Z,19.85
2018-09-20T07:23:38.832Z,15.60
2018-09-20T07:24:40.940Z,18.48
2018-09-20T07:25:43.252Z,19.10
2018-09-20T07:26:45.525Z,18.00
2018-09-20T07:27:47.629Z,17.75
2018-09-20T07:28:49.789Z,15.28
2018-09-20T07:29:51.940Z,15.75
2018-09-20T07:30:54.142Z,16.67
2018-09-20T07:31:56.265Z,18.20
2018-09-20T07:32:58.394Z,16.45
2018-09-20T07:34:00.564Z,14.55
2018-09-20T07:35:03.128Z,16.73
2018-09-20T07:36:05.310Z,15.60
2018-09-20T07:37:07.449Z,17.48
2018-09-20T07:38:09.565Z,15.83
2018-09-20T07:39:11.714Z,17.70
2018-09-20T07:40:13.872Z,18.70
2018-09-20T07:41:16.006Z,19.77
2018-09-20T07:42:18.558Z,17.67
2018-09-20T07:43:20.703Z,20.90
2018-09-20T07:44:23.313Z,16.25
2018-09-20T07:45:25.454Z,19.15
2018-09-20T07:46:27.586Z,18.62
2018-09-20T07:47:29.696Z,19.80
2018-09-20T07:48:31.821Z,17.67
2018-09-20T07:49:33.941Z,17.27
2018-09-20T07:50:36.333Z,16.87
2018-09-20T07:51:38.493Z,15.23
2018-09-20T07:52:40.913Z,18.40
2018-09-20T07:53:43.098Z,16.32
2018-09-20T07:54:45.202Z,13.45
2018-09-20T07:55:47.405Z,15.35
2018-09-20T07:56:49.600Z,17.57
2018-09-20T07:57:51.721Z,18.12
2018-09-20T07:58:53.998Z,17.60
2018-09-20T07:59:57.695Z,18.10
2018-09-20T08:01:00.270Z,18.35
2018-09-20T08:02:02.718Z,17.35
2018-09-20T08:03:04.778Z,17.82
2018-09-20T08:04:06.941Z,14.73
2018-09-20T08:05:09.077Z,16.70
2018-09-20T08:06:11.254Z,16.87
2018-09-20T08:07:13.443Z,14.40
2018-09-20T08:08:15.549Z,16.85
2018-09-20T08:09:17.665Z,16.95
2018-09-20T08:10:19.852Z,15.75
2018-09-20T08:11:21.997Z,17.15
2018-09-20T08:12:24.136Z,16.27
2018-09-20T08:13:26.255Z,15.68
2018-09-20T08:14:28.393Z,18.05
2018-09-20T08:15:30.558Z,13.50
2018-09-20T08:16:33.013Z,15.75
2018-09-20T08:17:35.621Z,11.80
2018-09-20T08:18:37.751Z,12.98
2018-09-20T08:19:39.888Z,14.87
2018-09-20T08:20:42.046Z,16.37
2018-09-20T08:21:44.197Z,14.95
2018-09-20T08:22:46.330Z,16.12
2018-09-20T08:23:48.815Z,15.45
2018-09-20T08:24:50.971Z,13.98
2018-09-20T08:25:53.099Z,17.50
2018-09-20T08:26:55.357Z,13.65
2018-09-20T08:27:57.603Z,14.63
2018-09-20T08:28:59.662Z,13.58
2018-09-20T08:30:01.873Z,12.45
2018-09-20T08:31:04.022Z,15.38
2018-09-20T08:32:06.453Z,14.47
2018-09-20T08:33:08.623Z,14.40
2018-09-20T08:34:10.754Z,13.83
2018-09-20T08:35:13.102Z,13.70
2018-09-20T08:36:15.275Z,12.82
2018-09-20T08:37:17.779Z,12.03
2018-09-20T08:38:19.841Z,12.80
2018-09-20T08:39:22.002Z,13.28
2018-09-20T08:40:24.147Z,11.55
2018-09-20T08:41:26.274Z,13.15
2018-09-20T08:42:28.413Z,14.00
2018-09-20T08:43:30.516Z,11.68
2018-09-20T08:44:32.621Z,13.45
2018-09-20T08:45:34.733Z,13.22
2018-09-20T08:46:36.906Z,13.50
2018-09-20T08:47:39.235Z,13.18
2018-09-20T08:48:41.357Z,15.13
2018-09-20T08:49:43.526Z,15.45
2018-09-20T08:50:45.962Z,12.30
2018-09-20T08:51:48.093Z,14.47
2018-09-20T08:52:50.259Z,15.15
2018-09-20T08:53:52.664Z,15.40
2018-09-20T08:54:54.785Z,13.30
2018-09-20T08:55:56.941Z,13.88
2018-09-20T08:56:59.158Z,15.32
2018-09-20T08:58:01.269Z,12.90
2018-09-20T08:59:03.426Z,14.45
2018-09-20T09:00:06.302Z,12.63
2018-09-20T09:01:08.701Z,17.98
2018-09-20T09:02:10.827Z,13.28
2018-09-20T09:03:12.927Z,14.20
2018-09-20T09:04:15.344Z,13.90
2018-09-20T09:05:17.460Z,12.95
2018-09-20T09:06:19.604Z,13.18
2018-09-20T09:07:21.726Z,13.40
2018-09-20T09:08:24.069Z,14.13
2018-09-20T09:09:26.311Z,16.97
2018-09-20T09:10:28.447Z,14.80
2018-09-20T09:11:30.545Z,10.75
2018-09-20T09:12:32.673Z,16.00
2018-09-20T09:13:34.814Z,12.88
2018-09-20T09:14:37.050Z,14.60
2018-09-20T09:15:39.161Z,13.38
2018-09-20T09:16:41.298Z,13.35
2018-09-20T09:17:43.417Z,13.40
2018-09-20T09:18:45.578Z,13.80
2018-09-20T09:19:47.714Z,14.28
2018-09-20T09:20:49.845Z,12.93
2018-09-20T09:21:52.388Z,14.05
2018-09-20T09:22:54.502Z,12.93
2018-09-20T09:23:56.636Z,14.87
2018-09-20T09:24:58.839Z,13.80
2018-09-20T09:26:01.261Z,12.95
2018-09-20T09:27:03.438Z,11.57
2018-09-20T09:28:05.777Z,11.25
2018-09-20T09:29:07.914Z,9.95
2018-09-20T09:30:10.045Z,13.90
2018-09-20T09:31:12.153Z,14.90
2018-09-20T09:32:14.277Z,11.05
2018-09-20T09:33:16.439Z,12.05
2018-09-20T09:34:18.591Z,9.45
2018-09-20T09:35:21.002Z,11.75
2018-09-20T09:36:23.138Z,12.55
2018-09-20T09:37:25.245Z,10.15
2018-09-20T09:38:27.373Z,11.50
2018-09-20T09:39:29.499Z,13.05
2018-09-20T09:40:31.852Z,12.95
2018-09-20T09:41:33.999Z,11.50
2018-09-20T09:42:36.129Z,10.75
2018-09-20T09:43:38.303Z,12.05
2018-09-20T09:44:40.454Z,13.40
2018-09-20T09:45:42.583Z,9.20
2018-09-20T09:46:44.721Z,10.93
2018-09-20T09:47:46.857Z,13.83
2018-09-20T09:48:49.130Z,10.72
2018-09-20T09:49:51.306Z,11.48
2018-09-20T09:50:53.437Z,9.88
2018-09-20T09:51:55.657Z,10.98
2018-09-20T09:52:57.803Z,8.63
2018-09-20T09:54:00.169Z,11.22
2018-09-20T09:55:02.784Z,10.75
2018-09-20T09:56:05.436Z,12.28
2018-09-20T09:57:07.588Z,12.82
2018-09-20T09:58:09.721Z,12.58
2018-09-20T09:59:11.870Z,11.38
2018-09-20T10:00:14.018Z,10.72
2018-09-20T10:01:16.170Z,14.13
2018-09-20T10:02:18.302Z,10.13
2018-09-20T10:03:20.434Z,10.32
2018-09-20T10:04:22.666Z,9.33
2018-09-20T10:05:25.110Z,11.10
2018-09-20T10:06:27.477Z,9.68
2018-09-20T10:07:29.607Z,10.60
2018-09-20T10:08:31.765Z,10.13
2018-09-20T10:09:33.951Z,10.03
2018-09-20T10:10:36.071Z,10.68
2018-09-20T10:11:38.518Z,11.43
2018-09-20T10:12:40.627Z,10.85
2018-09-20T10:13:42.852Z,12.68
2018-09-20T10:14:44.921Z,12.10
2018-09-20T10:15:47.139Z,11.57
2018-09-20T10:16:49.273Z,12.00
2018-09-20T10:17:51.422Z,10.58
2018-09-20T10:18:53.565Z,10.35
2018-09-20T10:19:55.761Z,11.60
2018-09-20T10:20:58.162Z,7.72
2018-09-20T10:22:00.354Z,13.05
2018-09-20T10:23:03.072Z,10.60
2018-09-20T10:24:05.300Z,9.45
2018-09-20T10:25:07.367Z,12.33
2018-09-20T10:26:09.472Z,11.80
2018-09-20T10:27:11.586Z,10.70
2018-09-20T10:28:13.753Z,12.68
2018-09-20T10:29:15.851Z,11.22
2018-09-20T10:30:17.979Z,9.53
2018-09-20T10:31:20.167Z,15.50
2018-09-20T10:32:22.250Z,13.80
2018-09-20T10:33:24.371Z,13.05
2018-09-20T10:34:26.499Z,11.33
2018-09-20T10:35:28.645Z,10.80
2018-09-20T10:36:31.073Z,12.82
2018-09-20T10:37:33.979Z,11.97
2018-09-20T10:38:36.680Z,11.80
2018-09-20T10:39:38.824Z,11.08
2018-09-20T10:40:41.016Z,10.75
2018-09-20T10:41:43.405Z,11.48
2018-09-20T10:42:45.534Z,8.63
2018-09-20T10:43:47.683Z,10.30
2018-09-20T10:44:50.148Z,10.35
2018-09-20T10:45:52.221Z,11.75
2018-09-20T10:46:54.359Z,12.50
2018-09-20T10:47:56.474Z,10.10
2018-09-20T10:48:58.599Z,10.68
2018-09-20T10:50:01.827Z,13.60
2018-09-20T10:51:03.989Z,12.95
2018-09-20T10:52:06.136Z,11.65
2018-09-20T10:53:08.509Z,10.50
2018-09-20T10:54:10.621Z,11.38
2018-09-20T10:55:12.770Z,11.53
2018-09-20T10:56:14.902Z,10.68
2018-09-20T10:57:17.345Z,12.10
2018-09-20T10:58:19.462Z,9.93
2018-09-20T10:59:21.580Z,10.55
2018-09-20T11:00:23.753Z,8.55
2018-09-20T11:01:25.893Z,9.83
2018-09-20T11:02:28.018Z,10.43
2018-09-20T11:03:30.265Z,11.35
2018-09-20T11:04:32.597Z,7.78
2018-09-20T11:05:34.701Z,9.75
2018-09-20T11:06:37.081Z,9.45
2018-09-20T11:07:39.197Z,9.18
2018-09-20T11:08:41.325Z,11.38
2018-09-20T11:09:43.530Z,9.48
2018-09-20T11:10:45.655Z,11.12
2018-09-20T11:11:47.838Z,10.20
2018-09-20T11:12:49.974Z,8.33
2018-09-20T11:13:52.344Z,11.25
2018-09-20T11:14:54.478Z,8.40
2018-09-20T11:15:56.725Z,10.55
2018-09-20T11:16:58.843Z,12.28
2018-09-20T11:18:01.057Z,10.05
2018-09-20T11:19:03.254Z,9.13
2018-09-20T11:20:05.565Z,9.78
2018-09-20T11:21:07.701Z,11.85
2018-09-20T11:22:09.813Z,9.08
2018-09-20T11:23:11.934Z,9.65
2018-09-20T11:24:14.057Z,11.08
2018-09-20T11:25:16.179Z,10.88
2018-09-20T11:26:18.372Z,10.80
2018-09-20T11:27:20.541Z,8.30
2018-09-20T11:28:23.009Z,11.28
2018-09-20T11:29:25.127Z,10.08
2018-09-20T11:30:27.233Z,12.05
2018-09-20T11:31:29.366Z,12.40
2018-09-20T11:32:31.524Z,12.05
2018-09-20T11:33:33.685Z,9.98
2018-09-20T11:34:35.822Z,11.73
2018-09-20T11:35:37.929Z,10.40
2018-09-20T11:36:40.514Z,9.15
2018-09-20T11:37:42.697Z,13.05
2018-09-20T11:38:44.852Z,11.73
2018-09-20T11:39:47.031Z,10.93
2018-09-20T11:40:49.166Z,11.85
2018-09-20T11:41:51.261Z,8.43
2018-09-20T11:42:53.438Z,10.55
2018-09-20T11:43:55.570Z,9.80
2018-09-20T11:44:58.106Z,9.90
2018-09-20T11:46:00.222Z,13.48
2018-09-20T11:47:02.434Z,12.70
2018-09-20T11:48:04.638Z,11.73
2018-09-20T11:49:06.798Z,9.45
2018-09-20T11:50:08.936Z,9.38
2018-09-20T11:51:11.065Z,16.30
2018-09-20T11:52:13.202Z,11.05
2018-09-20T11:53:15.328Z,21.62
2018-09-20T11:54:17.493Z,13.40
2018-09-20T11:55:19.633Z,11.10
2018-09-20T11:56:21.750Z,11.80
2018-09-20T11:57:23.910Z,11.25
2018-09-20T11:58:26.063Z,10.58
2018-09-20T11:59:28.177Z,11.40
2018-09-20T12:00:30.330Z,12.15
2018-09-20T12:01:32.473Z,9.75
2018-09-20T12:02:34.891Z,11.43
2018-09-20T12:03:37.002Z,10.58
2018-09-20T12:04:39.130Z,9.83
2018-09-20T12:05:41.272Z,10.45
2018-09-20T12:06:43.857Z,9.93
2018-09-20T12:07:45.988Z,10.48
2018-09-20T12:08:48.146Z,9.65
2018-09-20T12:09:50.313Z,9.53
2018-09-20T12:10:52.442Z,10.03
2018-09-20T12:11:54.586Z,10.55
2018-09-20T12:12:56.725Z,13.38
2018-09-20T12:13:58.881Z,11.28
2018-09-20T12:15:01.033Z,11.30
2018-09-20T12:16:03.261Z,10.55
2018-09-20T12:17:05.425Z,11.08
2018-09-20T12:18:07.545Z,10.40
2018-09-20T12:19:09.684Z,9.28
2018-09-20T12:20:11.817Z,12.78
2018-09-20T12:21:13.932Z,14.80
2018-09-20T12:22:16.044Z,12.60
2018-09-20T12:23:18.465Z,10.53
2018-09-20T12:24:20.591Z,9.40
2018-09-20T12:25:22.742Z,11.15
2018-09-20T12:26:24.852Z,10.88
2018-09-20T12:27:26.964Z,11.70
2018-09-20T12:28:29.129Z,9.98
2018-09-20T12:29:31.529Z,11.43
2018-09-20T12:30:33.655Z,11.73
2018-09-20T12:31:35.852Z,12.10
2018-09-20T12:32:37.940Z,11.25
2018-09-20T12:33:40.071Z,12.00
2018-09-20T12:34:42.214Z,11.20
2018-09-20T12:35:44.477Z,12.25
2018-09-20T12:36:46.837Z,11.10
2018-09-20T12:37:49.357Z,12.73
2018-09-20T12:38:51.545Z,11.55
2018-09-20T12:39:53.933Z,8.75
2018-09-20T12:40:56.115Z,9.60
2018-09-20T12:41:58.242Z,9.90
2018-09-20T12:43:00.485Z,10.25
2018-09-20T12:44:02.534Z,9.38
2018-09-20T12:45:04.717Z,10.08
2018-09-20T12:46:06.880Z,9.63
2018-09-20T12:47:09.034Z,9.83
2018-09-20T12:48:11.212Z,12.13
2018-09-20T12:49:13.305Z,9.55
2018-09-20T12:50:15.446Z,10.30
2018-09-20T12:51:17.573Z,11.33
2018-09-20T12:52:19.773Z,11.45
2018-09-20T12:53:21.914Z,11.53
2018-09-20T12:54:24.269Z,10.85
2018-09-20T12:55:26.426Z,9.90
2018-09-20T12:56:28.737Z,10.05
2018-09-20T12:57:30.881Z,10.28
2018-09-20T12:58:37.056Z,8.75
2018-09-20T12:59:39.181Z,9.98
2018-09-20T13:00:41.389Z,10.30
2018-09-20T13:01:43.475Z,9.80
2018-09-20T13:02:45.630Z,9.30
2018-09-20T13:03:48.483Z,12.33
2018-09-20T13:04:50.941Z,11.55
2018-09-20T13:05:53.593Z,11.85
2018-09-20T13:06:55.705Z,8.55
2018-09-20T13:07:57.945Z,12.95
2018-09-20T13:09:00.065Z,11.70
2018-09-20T13:10:02.560Z,9.70
2018-09-20T13:11:04.753Z,13.70
2018-09-20T13:12:06.910Z,12.30
2018-09-20T13:13:09.396Z,11.25
2018-09-20T13:14:11.524Z,11.40
2018-09-20T13:15:13.661Z,10.25
2018-09-20T13:16:16.042Z,12.20
2018-09-20T13:17:18.389Z,11.22
2018-09-20T13:18:20.525Z,11.63
2018-09-20T13:19:22.671Z,11.00
2018-09-20T13:20:24.862Z,11.93
2018-09-20T13:21:26.969Z,9.43
2018-09-20T13:22:29.101Z,10.35
2018-09-20T13:23:31.231Z,10.70